Aérodrome :
LOGIN :

S'inscrire | Disclaimer

   EN    FR    IT 

 










Légende :    VFR   VFR Marginal   IFR   IFR Intensif   IFR Très Intensif
Visi : 
Plafond : 
>= 8 km
>= 3000ft
5 à 8 km
1000 à 3000 ft
1500m à 5 km
500 à 1000 ft
800 à 1500m
200 à 500 ft
< 800m
< 200 ft
Symboles :   Orages  Brouillard  Fortes neiges  Fortes précipitations  Vent > 20 kt
SIGMETs :   Divers  Orages  Givrage  Turbulence  Onde Orograph.  Cendres Volcan.






- Altitude de l'aérodrome : 587 ft
- Code IATA : XCR


LFOK - Chalons Vatry

DERNIER METAR :
  • 150800Z AUTO 24012KT CAVOK 09/08 Q1003 NOSIG

METARs EXPIRÉS :
  • 150730Z AUTO 24013KT 9999 FEW013 BKN060 OVC072 09/09 Q1002 NOSIG
  • 150700Z AUTO 23015KT 9999 -RA FEW014/// SCT021/// BKN049/// ///CB 09/09 Q1002 BECMG BKN030
  • 150630Z AUTO 24022KT 9999 -RA SCT007/// BKN019/// BKN031/// ///CB 10/09 Q1001 BECMG BKN030
  • 150600Z AUTO 25021KT 3600 RA BR SCT011/// BKN017/// BKN023/// ///TCU 10/10 Q1001 TEMPO 22020G35KT BECMG 9999 NSW BKN030
  • 150530Z AUTO 22022KT 9999 BKN022 OVC027 11/08 Q1000 TEMPO 22020G35KT

TAF AMD TAF LFOK
Valide du 15 à 06h jusqu'au 16 à 06h UTC


150656Z 1506/1606 22020G35KT 9999 BKN030
TEMPO 1506/1508 RA BKN007 SCT030CB
BECMG 1508/1510 22013KT
TEMPO 1511/1521 4000 SHRA BKN025TCU
TEMPO 1521/1606 4000 RA BKN008 BKN020



MET'MAP, la Météo Aéronautique d'un coup d'oeil ! - Copyright ORBIFLY Décembre 2007 - Disclaimer

ORBIFLY MET'MAP TEAM :

Programmation & Développement : Alexandra Zaïnal
Sur une idée originale de : Baudouin d'Aumeries
Assistance à la programmation : Marc-Olivier Méhu
Soutien technique & logistique : Manuel Goepfert

Contact : metmap@orbifly.com




SOURCES & CREDITS :

   NOAA